sensor_id;sensor_type;location;lat;lon;timestamp;temperature;humidity
66576;SHT31;53428;47.686;16.584;2023-05-31T00:01:42;15.41;68.75
66576;SHT31;53428;47.686;16.584;2023-05-31T00:06:41;15.34;68.86
66576;SHT31;53428;47.686;16.584;2023-05-31T00:11:40;15.17;69.19
66576;SHT31;53428;47.686;16.584;2023-05-31T00:16:40;15.17;69.11
66576;SHT31;53428;47.686;16.584;2023-05-31T00:21:39;15.10;69.06
66576;SHT31;53428;47.686;16.584;2023-05-31T00:26:38;15.13;68.61
66576;SHT31;53428;47.686;16.584;2023-05-31T00:31:37;15.10;68.67
66576;SHT31;53428;47.686;16.584;2023-05-31T00:36:37;14.99;68.69
66576;SHT31;53428;47.686;16.584;2023-05-31T00:41:36;14.97;68.30
66576;SHT31;53428;47.686;16.584;2023-05-31T00:46:38;15.04;67.98
66576;SHT31;53428;47.686;16.584;2023-05-31T00:51:37;15.00;67.91
66576;SHT31;53428;47.686;16.584;2023-05-31T00:56:37;14.97;67.88
66576;SHT31;53428;47.686;16.584;2023-05-31T01:01:36;14.96;67.61
66576;SHT31;53428;47.686;16.584;2023-05-31T01:06:35;14.94;67.61
66576;SHT31;53428;47.686;16.584;2023-05-31T01:12:04;14.94;67.33
66576;SHT31;53428;47.686;16.584;2023-05-31T01:17:13;14.87;67.30
66576;SHT31;53428;47.686;16.584;2023-05-31T01:27:20;14.80;67.24
66576;SHT31;53428;47.686;16.584;2023-05-31T01:32:21;14.84;67.07
66576;SHT31;53428;47.686;16.584;2023-05-31T01:37:22;14.86;67.08
66576;SHT31;53428;47.686;16.584;2023-05-31T01:42:22;14.80;67.24
66576;SHT31;53428;47.686;16.584;2023-05-31T01:47:22;14.75;67.45
66576;SHT31;53428;47.686;16.584;2023-05-31T01:52:22;14.76;67.41
66576;SHT31;53428;47.686;16.584;2023-05-31T01:57:24;14.66;67.81
66576;SHT31;53428;47.686;16.584;2023-05-31T02:02:24;14.65;67.82
66576;SHT31;53428;47.686;16.584;2023-05-31T02:07:23;14.61;67.99
66576;SHT31;53428;47.686;16.584;2023-05-31T02:12:22;14.68;67.93
66576;SHT31;53428;47.686;16.584;2023-05-31T02:17:22;14.72;67.75
66576;SHT31;53428;47.686;16.584;2023-05-31T02:22:22;14.76;67.58
66576;SHT31;53428;47.686;16.584;2023-05-31T02:27:21;14.79;67.42
66576;SHT31;53428;47.686;16.584;2023-05-31T02:32:20;14.77;67.47
66576;SHT31;53428;47.686;16.584;2023-05-31T02:37:20;14.77;67.26
66576;SHT31;53428;47.686;16.584;2023-05-31T02:42:19;14.73;67.41
66576;SHT31;53428;47.686;16.584;2023-05-31T02:47:19;14.65;67.50
66576;SHT31;53428;47.686;16.584;2023-05-31T02:52:19;14.65;67.46
66576;SHT31;53428;47.686;16.584;2023-05-31T02:57:18;14.55;67.77
66576;SHT31;53428;47.686;16.584;2023-05-31T03:02:17;14.42;68.26
66576;SHT31;53428;47.686;16.584;2023-05-31T03:07:17;14.45;68.11
66576;SHT31;53428;47.686;16.584;2023-05-31T03:12:16;14.41;68.08
66576;SHT31;53428;47.686;16.584;2023-05-31T03:17:15;14.42;67.74
66576;SHT31;53428;47.686;16.584;2023-05-31T03:22:14;14.35;68.07
66576;SHT31;53428;47.686;16.584;2023-05-31T03:27:13;14.36;68.22
66576;SHT31;53428;47.686;16.584;2023-05-31T03:32:13;14.34;68.32
66576;SHT31;53428;47.686;16.584;2023-05-31T03:37:12;14.34;68.57
66576;SHT31;53428;47.686;16.584;2023-05-31T03:42:11;14.29;68.57
66576;SHT31;53428;47.686;16.584;2023-05-31T03:47:11;14.35;68.66
66576;SHT31;53428;47.686;16.584;2023-05-31T03:52:10;14.45;68.46
66576;SHT31;53428;47.686;16.584;2023-05-31T03:57:11;14.44;68.53
66576;SHT31;53428;47.686;16.584;2023-05-31T04:02:10;14.46;68.59
66576;SHT31;53428;47.686;16.584;2023-05-31T04:07:10;14.56;68.19
66576;SHT31;53428;47.686;16.584;2023-05-31T04:12:09;14.61;68.10
66576;SHT31;53428;47.686;16.584;2023-05-31T04:17:09;14.71;67.86
66576;SHT31;53428;47.686;16.584;2023-05-31T04:22:08;14.76;67.82
66576;SHT31;53428;47.686;16.584;2023-05-31T04:27:07;14.86;67.75
66576;SHT31;53428;47.686;16.584;2023-05-31T04:32:07;14.92;67.87
66576;SHT31;53428;47.686;16.584;2023-05-31T04:37:07;14.97;68.01
66576;SHT31;53428;47.686;16.584;2023-05-31T04:42:08;15.10;67.84
66576;SHT31;53428;47.686;16.584;2023-05-31T04:47:10;15.16;67.95
66576;SHT31;53428;47.686;16.584;2023-05-31T04:52:09;15.27;67.78
66576;SHT31;53428;47.686;16.584;2023-05-31T04:57:08;15.44;67.42
66576;SHT31;53428;47.686;16.584;2023-05-31T05:02:08;15.51;66.66
66576;SHT31;53428;47.686;16.584;2023-05-31T05:07:07;15.57;66.55
66576;SHT31;53428;47.686;16.584;2023-05-31T05:12:07;15.69;66.21
66576;SHT31;53428;47.686;16.584;2023-05-31T05:17:06;15.69;65.82
66576;SHT31;53428;47.686;16.584;2023-05-31T05:22:07;15.78;65.31
66576;SHT31;53428;47.686;16.584;2023-05-31T05:27:06;15.93;65.35
66576;SHT31;53428;47.686;16.584;2023-05-31T05:32:07;15.92;64.70
66576;SHT31;53428;47.686;16.584;2023-05-31T05:37:06;16.00;64.88
66576;SHT31;53428;47.686;16.584;2023-05-31T05:42:07;16.06;65.13
66576;SHT31;53428;47.686;16.584;2023-05-31T05:47:07;16.21;65.19
66576;SHT31;53428;47.686;16.584;2023-05-31T05:52:06;16.28;64.75
66576;SHT31;53428;47.686;16.584;2023-05-31T05:57:06;16.45;65.29
66576;SHT31;53428;47.686;16.584;2023-05-31T06:02:06;16.38;65.37
66576;SHT31;53428;47.686;16.584;2023-05-31T06:07:05;16.20;66.10
66576;SHT31;53428;47.686;16.584;2023-05-31T06:12:05;16.21;66.40
66576;SHT31;53428;47.686;16.584;2023-05-31T06:17:06;16.43;66.25
66576;SHT31;53428;47.686;16.584;2023-05-31T06:22:05;16.69;66.11
66576;SHT31;53428;47.686;16.584;2023-05-31T06:27:05;16.54;66.34
66576;SHT31;53428;47.686;16.584;2023-05-31T06:32:05;16.98;64.73
66576;SHT31;53428;47.686;16.584;2023-05-31T06:37:05;17.09;63.81
66576;SHT31;53428;47.686;16.584;2023-05-31T06:42:06;16.98;63.61
66576;SHT31;53428;47.686;16.584;2023-05-31T06:47:06;17.26;63.43
66576;SHT31;53428;47.686;16.584;2023-05-31T06:52:06;17.24;63.66
66576;SHT31;53428;47.686;16.584;2023-05-31T06:57:05;17.29;63.37
66576;SHT31;53428;47.686;16.584;2023-05-31T07:02:05;17.34;64.07
66576;SHT31;53428;47.686;16.584;2023-05-31T07:07:04;17.30;64.77
66576;SHT31;53428;47.686;16.584;2023-05-31T07:12:04;17.55;64.43
66576;SHT31;53428;47.686;16.584;2023-05-31T07:17:04;17.70;64.50
66576;SHT31;53428;47.686;16.584;2023-05-31T07:22:03;18.09;64.28
66576;SHT31;53428;47.686;16.584;2023-05-31T07:27:02;18.24;62.89
66576;SHT31;53428;47.686;16.584;2023-05-31T07:32:02;18.37;62.36
66576;SHT31;53428;47.686;16.584;2023-05-31T07:37:01;18.39;62.51
66576;SHT31;53428;47.686;16.584;2023-05-31T07:42:01;18.55;62.22
66576;SHT31;53428;47.686;16.584;2023-05-31T07:47:01;18.83;61.44
66576;SHT31;53428;47.686;16.584;2023-05-31T07:52:00;19.60;60.64
66576;SHT31;53428;47.686;16.584;2023-05-31T07:57:00;19.90;59.64
66576;SHT31;53428;47.686;16.584;2023-05-31T08:01:59;19.62;59.58
66576;SHT31;53428;47.686;16.584;2023-05-31T08:06:59;19.11;61.38
66576;SHT31;53428;47.686;16.584;2023-05-31T08:12:00;19.58;60.48
66576;SHT31;53428;47.686;16.584;2023-05-31T08:17:00;19.86;60.19
66576;SHT31;53428;47.686;16.584;2023-05-31T08:21:59;20.20;59.73
66576;SHT31;53428;47.686;16.584;2023-05-31T08:26:59;20.29;59.02
66576;SHT31;53428;47.686;16.584;2023-05-31T08:31:59;20.52;59.25
66576;SHT31;53428;47.686;16.584;2023-05-31T08:36:59;20.28;59.36
66576;SHT31;53428;47.686;16.584;2023-05-31T08:42:00;20.18;60.03
66576;SHT31;53428;47.686;16.584;2023-05-31T08:47:12;20.29;59.83
66576;SHT31;53428;47.686;16.584;2023-05-31T08:52:14;20.80;58.69
66576;SHT31;53428;47.686;16.584;2023-05-31T08:57:16;20.41;59.07
66576;SHT31;53428;47.686;16.584;2023-05-31T09:02:17;20.73;59.03
66576;SHT31;53428;47.686;16.584;2023-05-31T09:07:17;21.17;58.37
66576;SHT31;53428;47.686;16.584;2023-05-31T09:12:17;21.86;57.00
66576;SHT31;53428;47.686;16.584;2023-05-31T09:17:16;21.71;57.79
66576;SHT31;53428;47.686;16.584;2023-05-31T09:22:16;21.83;55.52
66576;SHT31;53428;47.686;16.584;2023-05-31T09:27:15;22.03;56.20
66576;SHT31;53428;47.686;16.584;2023-05-31T09:32:15;21.86;56.42
66576;SHT31;53428;47.686;16.584;2023-05-31T09:37:24;22.37;55.33
66576;SHT31;53428;47.686;16.584;2023-05-31T09:42:26;22.37;55.99
66576;SHT31;53428;47.686;16.584;2023-05-31T09:47:28;22.26;56.05
66576;SHT31;53428;47.686;16.584;2023-05-31T09:52:28;23.49;53.67
66576;SHT31;53428;47.686;16.584;2023-05-31T09:57:34;23.22;53.94
66576;SHT31;53428;47.686;16.584;2023-05-31T10:02:43;24.02;52.56
66576;SHT31;53428;47.686;16.584;2023-05-31T10:07:45;23.97;53.14
66576;SHT31;53428;47.686;16.584;2023-05-31T10:12:53;23.93;53.52
66576;SHT31;53428;47.686;16.584;2023-05-31T10:18:09;24.98;51.70
66576;SHT31;53428;47.686;16.584;2023-05-31T10:23:21;24.21;54.00
66576;SHT31;53428;47.686;16.584;2023-05-31T10:28:26;25.08;51.54
66576;SHT31;53428;47.686;16.584;2023-05-31T10:33:28;25.49;50.87
66576;SHT31;53428;47.686;16.584;2023-05-31T10:38:36;25.24;51.38
66576;SHT31;53428;47.686;16.584;2023-05-31T10:44:02;26.55;48.69
66576;SHT31;53428;47.686;16.584;2023-05-31T10:49:05;25.11;50.66
66576;SHT31;53428;47.686;16.584;2023-05-31T10:54:04;26.16;48.73
66576;SHT31;53428;47.686;16.584;2023-05-31T10:59:08;26.77;48.52
66576;SHT31;53428;47.686;16.584;2023-05-31T11:04:22;25.59;48.74
66576;SHT31;53428;47.686;16.584;2023-05-31T11:09:23;26.91;48.04
66576;SHT31;53428;47.686;16.584;2023-05-31T11:14:26;27.54;46.78
66576;SHT31;53428;47.686;16.584;2023-05-31T11:19:28;28.83;43.56
66576;SHT31;53428;47.686;16.584;2023-05-31T11:29:57;28.18;44.03
66576;SHT31;53428;47.686;16.584;2023-05-31T11:34:58;28.00;44.64
66576;SHT31;53428;47.686;16.584;2023-05-31T11:40:01;26.84;46.08
66576;SHT31;53428;47.686;16.584;2023-05-31T11:45:06;27.84;44.52
66576;SHT31;53428;47.686;16.584;2023-05-31T11:50:06;27.57;44.40
66576;SHT31;53428;47.686;16.584;2023-05-31T11:55:06;27.09;45.93
66576;SHT31;53428;47.686;16.584;2023-05-31T12:00:07;28.26;43.38
66576;SHT31;53428;47.686;16.584;2023-05-31T12:05:14;27.82;43.81
66576;SHT31;53428;47.686;16.584;2023-05-31T12:10:16;29.59;41.60
66576;SHT31;53428;47.686;16.584;2023-05-31T12:15:16;29.79;40.87
66576;SHT31;53428;47.686;16.584;2023-05-31T12:20:16;30.44;39.27
66576;SHT31;53428;47.686;16.584;2023-05-31T12:25:15;28.77;41.79
66576;SHT31;53428;47.686;16.584;2023-05-31T12:30:17;28.57;42.68
66576;SHT31;53428;47.686;16.584;2023-05-31T12:35:17;28.13;43.08
66576;SHT31;53428;47.686;16.584;2023-05-31T12:40:17;29.41;41.04
66576;SHT31;53428;47.686;16.584;2023-05-31T12:45:21;29.93;40.85
66576;SHT31;53428;47.686;16.584;2023-05-31T12:50:21;29.80;39.96
66576;SHT31;53428;47.686;16.584;2023-05-31T12:55:20;30.75;39.64
66576;SHT31;53428;47.686;16.584;2023-05-31T13:00:19;30.68;39.58
66576;SHT31;53428;47.686;16.584;2023-05-31T13:05:18;31.03;38.18
66576;SHT31;53428;47.686;16.584;2023-05-31T13:10:18;30.59;37.31
66576;SHT31;53428;47.686;16.584;2023-05-31T13:15:17;29.84;40.70
66576;SHT31;53428;47.686;16.584;2023-05-31T13:20:17;31.99;37.02
66576;SHT31;53428;47.686;16.584;2023-05-31T13:25:16;31.51;37.64
66576;SHT31;53428;47.686;16.584;2023-05-31T13:30:16;31.82;37.40
66576;SHT31;53428;47.686;16.584;2023-05-31T13:35:15;31.40;38.30
66576;SHT31;53428;47.686;16.584;2023-05-31T13:40:15;31.53;37.79
66576;SHT31;53428;47.686;16.584;2023-05-31T13:45:14;31.13;38.36
66576;SHT31;53428;47.686;16.584;2023-05-31T13:50:14;33.82;35.17
66576;SHT31;53428;47.686;16.584;2023-05-31T13:55:13;35.03;33.80
66576;SHT31;53428;47.686;16.584;2023-05-31T14:00:12;34.44;34.34
66576;SHT31;53428;47.686;16.584;2023-05-31T14:05:12;31.27;38.53
66576;SHT31;53428;47.686;16.584;2023-05-31T14:10:11;30.18;40.67
66576;SHT31;53428;47.686;16.584;2023-05-31T14:15:11;30.72;39.47
66576;SHT31;53428;47.686;16.584;2023-05-31T14:20:11;31.53;38.53
66576;SHT31;53428;47.686;16.584;2023-05-31T14:25:10;31.24;39.48
66576;SHT31;53428;47.686;16.584;2023-05-31T14:30:10;31.64;38.85
66576;SHT31;53428;47.686;16.584;2023-05-31T14:35:09;30.99;39.54
66576;SHT31;53428;47.686;16.584;2023-05-31T14:40:10;34.33;35.49
66576;SHT31;53428;47.686;16.584;2023-05-31T14:45:10;31.45;39.09
66576;SHT31;53428;47.686;16.584;2023-05-31T14:50:10;32.13;38.76
66576;SHT31;53428;47.686;16.584;2023-05-31T14:55:09;32.92;37.84
66576;SHT31;53428;47.686;16.584;2023-05-31T15:00:09;31.40;39.74
66576;SHT31;53428;47.686;16.584;2023-05-31T15:05:09;30.79;40.47
66576;SHT31;53428;47.686;16.584;2023-05-31T15:10:09;30.34;41.38
66576;SHT31;53428;47.686;16.584;2023-05-31T15:15:08;30.95;39.90
66576;SHT31;53428;47.686;16.584;2023-05-31T15:20:11;30.16;41.09
66576;SHT31;53428;47.686;16.584;2023-05-31T15:25:11;31.22;40.60
66576;SHT31;53428;47.686;16.584;2023-05-31T15:30:10;29.89;42.15
66576;SHT31;53428;47.686;16.584;2023-05-31T15:35:09;31.37;40.27
66576;SHT31;53428;47.686;16.584;2023-05-31T15:40:09;32.35;38.89
66576;SHT31;53428;47.686;16.584;2023-05-31T15:45:08;30.21;41.14
66576;SHT31;53428;47.686;16.584;2023-05-31T15:50:08;30.27;41.64
66576;SHT31;53428;47.686;16.584;2023-05-31T15:55:07;31.31;40.06
66576;SHT31;53428;47.686;16.584;2023-05-31T16:00:07;30.93;40.15
66576;SHT31;53428;47.686;16.584;2023-05-31T16:05:07;29.63;42.55
66576;SHT31;53428;47.686;16.584;2023-05-31T16:10:08;30.34;41.76
66576;SHT31;53428;47.686;16.584;2023-05-31T16:15:08;30.18;42.24
66576;SHT31;53428;47.686;16.584;2023-05-31T16:20:08;29.86;41.80
66576;SHT31;53428;47.686;16.584;2023-05-31T16:25:07;30.79;40.77
66576;SHT31;53428;47.686;16.584;2023-05-31T16:30:08;29.93;41.48
66576;SHT31;53428;47.686;16.584;2023-05-31T16:35:08;29.26;42.76
66576;SHT31;53428;47.686;16.584;2023-05-31T16:40:07;30.18;41.81
66576;SHT31;53428;47.686;16.584;2023-05-31T16:45:10;29.86;41.85
66576;SHT31;53428;47.686;16.584;2023-05-31T16:50:09;30.06;41.63
66576;SHT31;53428;47.686;16.584;2023-05-31T16:55:09;29.99;42.12
66576;SHT31;53428;47.686;16.584;2023-05-31T17:00:09;28.71;44.60
66576;SHT31;53428;47.686;16.584;2023-05-31T17:05:08;29.34;43.83
66576;SHT31;53428;47.686;16.584;2023-05-31T17:10:08;28.18;45.42
66576;SHT31;53428;47.686;16.584;2023-05-31T17:15:08;29.46;43.18
66576;SHT31;53428;47.686;16.584;2023-05-31T17:20:07;29.01;44.19
66576;SHT31;53428;47.686;16.584;2023-05-31T17:25:07;27.60;46.51
66576;SHT31;53428;47.686;16.584;2023-05-31T17:30:07;27.60;46.56
66576;SHT31;53428;47.686;16.584;2023-05-31T17:35:07;26.19;48.84
66576;SHT31;53428;47.686;16.584;2023-05-31T17:40:07;24.88;51.47
66576;SHT31;53428;47.686;16.584;2023-05-31T17:45:07;24.25;53.06
66576;SHT31;53428;47.686;16.584;2023-05-31T17:50:06;24.14;53.70
66576;SHT31;53428;47.686;16.584;2023-05-31T17:55:08;23.78;54.46
66576;SHT31;53428;47.686;16.584;2023-05-31T18:00:08;23.69;54.86
66576;SHT31;53428;47.686;16.584;2023-05-31T18:05:07;23.38;55.63
66576;SHT31;53428;47.686;16.584;2023-05-31T18:10:08;22.95;56.61
66576;SHT31;53428;47.686;16.584;2023-05-31T18:15:07;22.78;57.01
66576;SHT31;53428;47.686;16.584;2023-05-31T18:20:07;22.58;57.06
66576;SHT31;53428;47.686;16.584;2023-05-31T18:25:07;22.37;57.36
66576;SHT31;53428;47.686;16.584;2023-05-31T18:30:07;22.12;57.83
66576;SHT31;53428;47.686;16.584;2023-05-31T18:35:06;21.99;58.27
66576;SHT31;53428;47.686;16.584;2023-05-31T18:40:06;21.86;58.56
66576;SHT31;53428;47.686;16.584;2023-05-31T18:45:06;21.74;58.96
66576;SHT31;53428;47.686;16.584;2023-05-31T18:50:06;21.55;59.41
66576;SHT31;53428;47.686;16.584;2023-05-31T18:55:06;21.27;60.03
66576;SHT31;53428;47.686;16.584;2023-05-31T19:00:06;21.11;60.28
66576;SHT31;53428;47.686;16.584;2023-05-31T19:05:05;21.16;59.98
66576;SHT31;53428;47.686;16.584;2023-05-31T19:10:05;20.96;60.00
66576;SHT31;53428;47.686;16.584;2023-05-31T19:15:05;20.71;60.09
66576;SHT31;53428;47.686;16.584;2023-05-31T19:20:05;20.51;62.22
66576;SHT31;53428;47.686;16.584;2023-05-31T19:25:05;20.34;63.75
66576;SHT31;53428;47.686;16.584;2023-05-31T19:30:04;20.16;64.69
66576;SHT31;53428;47.686;16.584;2023-05-31T19:35:05;20.14;64.61
66576;SHT31;53428;47.686;16.584;2023-05-31T19:40:05;19.84;65.22
66576;SHT31;53428;47.686;16.584;2023-05-31T19:45:05;19.67;64.88
66576;SHT31;53428;47.686;16.584;2023-05-31T19:50:05;19.58;64.97
66576;SHT31;53428;47.686;16.584;2023-05-31T19:55:06;19.52;64.64
66576;SHT31;53428;47.686;16.584;2023-05-31T20:00:06;19.28;65.42
66576;SHT31;53428;47.686;16.584;2023-05-31T20:05:11;19.08;66.21
66576;SHT31;53428;47.686;16.584;2023-05-31T20:10:10;18.91;67.36
66576;SHT31;53428;47.686;16.584;2023-05-31T20:15:09;18.61;67.91
66576;SHT31;53428;47.686;16.584;2023-05-31T20:20:09;18.57;67.59
66576;SHT31;53428;47.686;16.584;2023-05-31T20:25:08;18.32;70.20
66576;SHT31;53428;47.686;16.584;2023-05-31T20:30:08;17.97;71.83
66576;SHT31;53428;47.686;16.584;2023-05-31T20:35:07;17.77;72.75
66576;SHT31;53428;47.686;16.584;2023-05-31T20:40:07;17.37;74.18
66576;SHT31;53428;47.686;16.584;2023-05-31T20:45:07;17.20;74.25
66576;SHT31;53428;47.686;16.584;2023-05-31T20:50:07;17.06;74.54
66576;SHT31;53428;47.686;16.584;2023-05-31T20:55:11;16.92;74.71
66576;SHT31;53428;47.686;16.584;2023-05-31T21:00:10;16.96;74.67
66576;SHT31;53428;47.686;16.584;2023-05-31T21:05:10;16.79;74.50
66576;SHT31;53428;47.686;16.584;2023-05-31T21:10:10;16.78;74.75
66576;SHT31;53428;47.686;16.584;2023-05-31T21:15:09;16.69;74.99
66576;SHT31;53428;47.686;16.584;2023-05-31T21:20:09;16.53;75.27
66576;SHT31;53428;47.686;16.584;2023-05-31T21:25:08;16.38;76.30
66576;SHT31;53428;47.686;16.584;2023-05-31T21:30:08;16.21;76.98
66576;SHT31;53428;47.686;16.584;2023-05-31T21:35:07;16.10;77.47
66576;SHT31;53428;47.686;16.584;2023-05-31T21:40:07;15.93;77.65
66576;SHT31;53428;47.686;16.584;2023-05-31T21:45:06;15.78;78.20
66576;SHT31;53428;47.686;16.584;2023-05-31T21:50:06;15.70;78.19
66576;SHT31;53428;47.686;16.584;2023-05-31T21:55:06;15.57;78.57
66576;SHT31;53428;47.686;16.584;2023-05-31T22:00:06;15.48;78.30
66576;SHT31;53428;47.686;16.584;2023-05-31T22:05:10;15.42;78.39
66576;SHT31;53428;47.686;16.584;2023-05-31T22:10:09;15.35;78.65
66576;SHT31;53428;47.686;16.584;2023-05-31T22:15:09;15.27;78.71
66576;SHT31;53428;47.686;16.584;2023-05-31T22:20:09;15.21;78.85
66576;SHT31;53428;47.686;16.584;2023-05-31T22:25:09;15.21;79.06
66576;SHT31;53428;47.686;16.584;2023-05-31T22:30:08;15.17;78.65
66576;SHT31;53428;47.686;16.584;2023-05-31T22:35:08;15.06;78.90
66576;SHT31;53428;47.686;16.584;2023-05-31T22:40:09;15.07;78.87
66576;SHT31;53428;47.686;16.584;2023-05-31T22:45:09;15.10;78.86
66576;SHT31;53428;47.686;16.584;2023-05-31T22:50:09;14.99;78.90
66576;SHT31;53428;47.686;16.584;2023-05-31T22:55:08;14.80;78.93
66576;SHT31;53428;47.686;16.584;2023-05-31T23:00:08;14.79;78.66
66576;SHT31;53428;47.686;16.584;2023-05-31T23:05:11;14.80;77.92
66576;SHT31;53428;47.686;16.584;2023-05-31T23:10:10;14.72;77.86
66576;SHT31;53428;47.686;16.584;2023-05-31T23:15:13;14.69;78.15
66576;SHT31;53428;47.686;16.584;2023-05-31T23:20:13;14.48;78.88
66576;SHT31;53428;47.686;16.584;2023-05-31T23:25:14;14.32;79.76
66576;SHT31;53428;47.686;16.584;2023-05-31T23:30:14;14.27;79.87
66576;SHT31;53428;47.686;16.584;2023-05-31T23:35:13;14.21;80.04
66576;SHT31;53428;47.686;16.584;2023-05-31T23:40:12;14.14;80.17
66576;SHT31;53428;47.686;16.584;2023-05-31T23:45:12;14.15;80.22
66576;SHT31;53428;47.686;16.584;2023-05-31T23:50:11;14.04;80.30
66576;SHT31;53428;47.686;16.584;2023-05-31T23:55:10;13.97;80.05
